Time;durP1;ratioP1;P1;durP2;ratioP2;P2;SDS_P1;SDS_P2;PMS_P1;PMS_P2;Temp;Humidity;BMP_temperature;BMP_pressure;BME280_temperature;BME280_humidity;BME280_pressure;Samples;Min_cycle;Max_cycle;Signal;HPM_P1;HPM_P2
2023/01/19 00:00:10;;;;;;;;;;;;;;;5.72;54.83;99196.75;4956546;28;7017;-72
2023/01/19 00:02:37;;;;;;;;;;;;;;;5.76;54.97;99197.78;4963816;28;11155;-73
2023/01/19 00:05:04;;;;;;;;;;;;;;;5.74;55.00;99191.75;4960635;28;10002;-73
2023/01/19 00:07:31;;;;;;;;;;;;;;;5.73;55.06;99190.88;4959222;28;6792;-72
2023/01/19 00:09:56;;;;;;;;;;;;;;;5.73;54.90;99187.47;4965218;28;6776;-72
2023/01/19 00:12:22;;;;;;;;;;;;;;;5.69;54.78;99189.00;4996212;28;6799;-73
2023/01/19 00:14:48;;;;;;;;;;;;;;;5.64;55.31;99181.16;4978740;28;6768;-73
2023/01/19 00:17:13;;;;;;;;;;;;;;;5.62;54.64;99187.84;4995747;28;6828;-73
2023/01/19 00:19:39;;;;;;;;;;;;;;;5.61;54.97;99192.84;4983062;28;6979;-73
2023/01/19 00:22:05;;;;;;;;;;;;;;;5.61;55.19;99191.19;4976189;28;6772;-73
2023/01/19 00:24:31;;;;;;;;;;;;;;;5.59;54.92;99192.75;4978753;28;7174;-73
2023/01/19 00:26:57;;;;;;;;;;;;;;;5.56;54.83;99195.16;4970573;28;7170;-73
2023/01/19 00:29:23;;;;;;;;;;;;;;;5.55;55.46;99193.41;4963777;28;6967;-73
2023/01/19 00:31:49;;;;;;;;;;;;;;;5.54;55.04;99199.28;4981139;28;6967;-73
2023/01/19 00:34:15;;;;;;;;;;;;;;;5.51;55.53;99194.94;4984463;28;6965;-73
2023/01/19 00:36:41;;;;;;;;;;;;;;;5.53;55.48;99182.31;4980951;28;7332;-72
2023/01/19 00:39:07;;;;;;;;;;;;;;;5.51;55.31;99187.31;4951382;28;8130;-73
2023/01/19 00:44:17;;;;;;;;;;;;;;;5.48;55.45;99191.34;4970224;28;6804;-73
2023/01/19 00:46:43;;;;;;;;;;;;;;;5.49;55.26;99196.53;4984957;28;6852;-73
2023/01/19 00:49:08;;;;;;;;;;;;;;;5.50;55.05;99193.19;4973494;28;7159;-73
2023/01/19 00:51:34;;;;;;;;;;;;;;;5.51;55.07;99207.63;4958947;28;8570;-73
2023/01/19 00:54:03;;;;;;;;;;;;;;;5.53;54.87;99207.72;4970389;28;6981;-73
2023/01/19 00:56:32;;;;;;;;;;;;;;;5.56;55.24;99210.41;4971550;28;6819;-73
2023/01/19 00:58:59;;;;;;;;;;;;;;;5.63;55.08;99220.09;4954819;28;6789;-72
2023/01/19 01:01:25;;;;;;;;;;;;;;;5.70;55.24;99216.16;4972766;28;7234;-72
2023/01/19 01:03:52;;;;;;;;;;;;;;;5.73;55.16;99206.13;4959306;28;6772;-73
2023/01/19 01:06:19;;;;;;;;;;;;;;;5.73;54.94;99205.28;4971117;28;6869;-73
2023/01/19 01:08:45;;;;;;;;;;;;;;;5.72;55.00;99216.25;4970495;28;7134;-73
2023/01/19 01:11:10;;;;;;;;;;;;;;;5.70;54.74;99216.16;4942642;28;7106;-73
2023/01/19 01:13:36;;;;;;;;;;;;;;;5.66;54.80;99227.84;4973405;28;7755;-73
2023/01/19 01:16:02;;;;;;;;;;;;;;;5.64;54.69;99219.28;4993457;28;7231;-72
2023/01/19 01:18:27;;;;;;;;;;;;;;;5.62;54.68;99220.88;4978811;28;6768;-72
2023/01/19 01:21:06;;;;;;;;;;;;;;;5.58;54.29;99215.56;4979707;28;6772;-72
2023/01/19 01:23:33;;;;;;;;;;;;;;;5.54;55.08;99219.63;4981843;28;6812;-73
2023/01/19 01:25:59;;;;;;;;;;;;;;;5.54;55.10;99227.25;4977573;28;7379;-73
2023/01/19 01:28:24;;;;;;;;;;;;;;;5.51;54.71;99220.34;4994339;28;7209;-73
2023/01/19 01:30:55;;;;;;;;;;;;;;;5.50;54.85;99210.97;4982578;28;6784;-73
2023/01/19 01:33:22;;;;;;;;;;;;;;;5.49;54.72;99216.88;4993849;28;6842;-72
2023/01/19 01:35:48;;;;;;;;;;;;;;;5.48;54.67;99221.84;4976138;28;7857;-73
2023/01/19 01:38:15;;;;;;;;;;;;;;;5.45;55.01;99222.56;4981963;28;7094;-73
2023/01/19 01:40:41;;;;;;;;;;;;;;;5.44;55.10;99219.97;4976034;28;7090;-72
2023/01/19 01:43:16;;;;;;;;;;;;;;;5.43;54.86;99226.72;4961251;28;7184;-72
2023/01/19 01:45:42;;;;;;;;;;;;;;;5.39;55.31;99220.59;4957151;28;6784;-72
2023/01/19 01:48:16;;;;;;;;;;;;;;;5.41;55.36;99220.69;4960756;28;6772;-72
2023/01/19 01:53:59;;;;;;;;;;;;;;;5.38;55.32;99220.53;4967231;28;6828;-73
2023/01/19 01:56:34;;;;;;;;;;;;;;;5.42;55.40;99214.81;4958648;28;6815;-73
2023/01/19 01:59:07;;;;;;;;;;;;;;;5.42;55.36;99204.63;4988607;28;6815;-73
2023/01/19 02:04:20;;;;;;;;;;;;;;;5.45;55.74;99206.47;4977957;28;6820;-72
2023/01/19 02:15:19;;;;;;;;;;;;;;;5.51;55.58;99215.25;4975064;28;7275;-73
2023/01/19 02:17:46;;;;;;;;;;;;;;;5.50;55.13;99207.56;4960763;28;7195;-72
2023/01/19 02:20:12;;;;;;;;;;;;;;;5.49;55.41;99209.25;4949063;28;7238;-73
2023/01/19 02:22:48;;;;;;;;;;;;;;;5.51;55.54;99211.88;4959003;28;6988;-73
2023/01/19 02:25:15;;;;;;;;;;;;;;;5.52;55.19;99221.22;4958524;28;6888;-73
2023/01/19 02:27:42;;;;;;;;;;;;;;;5.56;55.33;99212.94;4990990;28;6796;-73
2023/01/19 02:30:09;;;;;;;;;;;;;;;5.60;54.96;99212.31;4973559;28;6984;-73
2023/01/19 02:32:35;;;;;;;;;;;;;;;5.59;54.96;99212.22;4975541;28;11081;-72
2023/01/19 02:35:01;;;;;;;;;;;;;;;5.60;55.05;99219.94;4965296;28;6816;-73
2023/01/19 02:37:33;;;;;;;;;;;;;;;5.60;54.84;99212.31;4973275;28;7315;-72
2023/01/19 02:40:03;;;;;;;;;;;;;;;5.60;54.52;99214.84;4967150;28;6979;-72
2023/01/19 02:42:48;;;;;;;;;;;;;;;5.60;54.98;99213.97;4988427;28;6884;-73
2023/01/19 02:45:20;;;;;;;;;;;;;;;5.61;54.90;99216.59;4987520;28;7038;-73
2023/01/19 02:47:50;;;;;;;;;;;;;;;5.61;55.32;99214.06;4945246;28;7135;-73
2023/01/19 02:50:31;;;;;;;;;;;;;;;5.64;54.83;99221.81;4960483;28;7203;-73
2023/01/19 02:53:14;;;;;;;;;;;;;;;5.62;54.99;99212.38;4977538;28;6907;-73
2023/01/19 02:55:57;;;;;;;;;;;;;;;5.63;54.96;99215.00;4960836;28;6804;-73
2023/01/19 02:58:59;;;;;;;;;;;;;;;5.60;55.33;99209.78;4977824;28;7250;-73
2023/01/19 03:02:07;;;;;;;;;;;;;;;5.63;54.98;99212.47;4979204;28;6848;-72
2023/01/19 03:05:17;;;;;;;;;;;;;;;5.65;55.35;99220.13;4976493;28;6812;-73
2023/01/19 03:08:32;;;;;;;;;;;;;;;5.70;55.07;99218.72;4970366;28;6968;-73
2023/01/19 03:11:07;;;;;;;;;;;;;;;5.75;55.03;99226.56;4950469;28;6813;-73
2023/01/19 03:14:02;;;;;;;;;;;;;;;5.80;54.81;99230.22;4967996;28;6824;-73
2023/01/19 03:16:54;;;;;;;;;;;;;;;5.81;54.86;99224.31;4969105;28;6812;-73
2023/01/19 03:19:34;;;;;;;;;;;;;;;5.85;54.75;99221.13;4984484;28;7499;-72
2023/01/19 03:22:09;;;;;;;;;;;;;;;5.87;54.98;99219.50;4977954;28;6845;-73
2023/01/19 03:24:44;;;;;;;;;;;;;;;5.94;54.59;99233.38;4970138;28;7755;-72
2023/01/19 03:27:25;;;;;;;;;;;;;;;5.96;54.88;99224.19;4968789;28;7280;-73
2023/01/19 03:30:06;;;;;;;;;;;;;;;6.00;54.63;99220.13;4986883;28;7122;-73
2023/01/19 03:32:43;;;;;;;;;;;;;;;6.04;54.50;99227.13;4967283;28;7285;-73
2023/01/19 03:35:14;;;;;;;;;;;;;;;6.09;54.62;99220.59;4979616;28;7050;-72
2023/01/19 03:37:46;;;;;;;;;;;;;;;6.10;54.70;99218.09;4995183;28;7876;-72
2023/01/19 03:40:12;;;;;;;;;;;;;;;6.14;54.54;99224.19;4966276;28;6812;-73
2023/01/19 03:42:41;;;;;;;;;;;;;;;6.19;54.46;99219.31;4965710;28;6848;-73
2023/01/19 03:45:08;;;;;;;;;;;;;;;6.24;54.13;99230.59;4991655;28;7059;-73
2023/01/19 03:47:35;;;;;;;;;;;;;;;6.25;54.29;99234.88;4972356;28;8655;-73
2023/01/19 03:50:10;;;;;;;;;;;;;;;6.27;54.03;99225.66;4987928;28;6868;-72
2023/01/19 03:52:35;;;;;;;;;;;;;;;6.32;54.22;99233.50;4959612;28;7428;-73
2023/01/19 03:55:04;;;;;;;;;;;;;;;6.35;54.16;99236.16;4967539;28;6783;-73
2023/01/19 03:57:31;;;;;;;;;;;;;;;6.36;53.86;99231.16;4966111;28;6807;-73
2023/01/19 03:59:57;;;;;;;;;;;;;;;6.39;53.97;99230.44;4992329;28;8106;-73
2023/01/19 04:02:23;;;;;;;;;;;;;;;6.40;53.55;99237.28;4957526;28;7162;-72
2023/01/19 04:04:49;;;;;;;;;;;;;;;6.41;53.64;99233.91;4971489;28;6947;-73
2023/01/19 04:07:15;;;;;;;;;;;;;;;6.40;53.87;99237.28;4987031;28;6788;-73
2023/01/19 04:09:40;;;;;;;;;;;;;;;6.42;53.76;99230.56;4972919;28;7123;-73
2023/01/19 04:12:06;;;;;;;;;;;;;;;6.41;53.64;99228.81;4971593;28;6788;-73
2023/01/19 04:14:32;;;;;;;;;;;;;;;6.42;53.97;99237.31;4959292;28;6855;-72
2023/01/19 04:16:58;;;;;;;;;;;;;;;6.44;53.79;99233.19;4988202;28;7087;-73
2023/01/19 04:19:24;;;;;;;;;;;;;;;6.43;53.67;99239.09;4973343;28;6840;-72
2023/01/19 04:21:50;;;;;;;;;;;;;;;6.42;53.49;99235.66;4976368;28;6780;-73
2023/01/19 04:24:16;;;;;;;;;;;;;;;6.45;54.11;99253.59;4987888;28;7162;-73
2023/01/19 04:26:42;;;;;;;;;;;;;;;6.49;53.31;99252.97;4943342;28;7022;-72
2023/01/19 04:29:08;;;;;;;;;;;;;;;6.52;53.74;99258.19;4973305;28;6997;-73
2023/01/19 04:31:35;;;;;;;;;;;;;;;6.56;53.55;99259.19;4970432;28;7232;-72
2023/01/19 04:34:02;;;;;;;;;;;;;;;6.58;53.39;99246.56;4958452;28;7405;-73
2023/01/19 04:36:27;;;;;;;;;;;;;;;6.61;53.77;99251.78;4976668;28;6847;-72
2023/01/19 04:38:54;;;;;;;;;;;;;;;6.63;52.99;99255.25;4976587;28;7306;-73
2023/01/19 04:41:19;;;;;;;;;;;;;;;6.65;53.45;99256.19;4958098;28;6800;-73
2023/01/19 04:43:46;;;;;;;;;;;;;;;6.66;53.25;99260.47;4955529;28;7199;-73
2023/01/19 04:46:13;;;;;;;;;;;;;;;6.67;53.65;99246.97;4973701;28;7127;-73
2023/01/19 04:48:39;;;;;;;;;;;;;;;6.66;53.70;99271.53;4967368;28;6985;-72
2023/01/19 04:51:04;;;;;;;;;;;;;;;6.68;53.31;99266.53;4962144;28;6796;-73
2023/01/19 04:53:30;;;;;;;;;;;;;;;6.67;53.12;99268.19;4955981;28;7886;-73
2023/01/19 04:55:56;;;;;;;;;;;;;;;6.67;53.29;99277.53;4973395;28;7180;-73
2023/01/19 04:58:22;;;;;;;;;;;;;;;6.64;53.52;99268.06;4970506;28;7893;-73
2023/01/19 05:00:47;;;;;;;;;;;;;;;6.61;53.61;99262.81;4951256;28;7437;-73
2023/01/19 05:03:13;;;;;;;;;;;;;;;6.57;53.74;99270.25;4961144;28;6814;-73
2023/01/19 05:05:39;;;;;;;;;;;;;;;6.55;53.50;99279.50;4974848;28;6764;-73
2023/01/19 05:08:04;;;;;;;;;;;;;;;6.52;53.67;99278.56;4954007;28;6963;-73
2023/01/19 05:10:30;;;;;;;;;;;;;;;6.48;53.42;99286.88;4972864;28;6776;-73
2023/01/19 05:12:56;;;;;;;;;;;;;;;6.43;53.85;99288.31;4991958;28;7172;-73
2023/01/19 05:15:22;;;;;;;;;;;;;;;6.34;53.38;99286.22;4958868;28;8296;-73
2023/01/19 05:17:48;;;;;;;;;;;;;;;6.25;53.65;99301.91;4977487;28;6820;-73
2023/01/19 05:20:13;;;;;;;;;;;;;;;6.18;53.34;99306.63;4976094;28;6826;-73
2023/01/19 05:22:39;;;;;;;;;;;;;;;6.09;53.72;99302.84;4986601;28;7471;-73
2023/01/19 05:25:07;;;;;;;;;;;;;;;6.00;53.76;99306.59;4978234;28;6792;-73
2023/01/19 05:27:33;;;;;;;;;;;;;;;5.93;54.51;99315.56;4980954;28;6959;-73
2023/01/19 05:29:59;;;;;;;;;;;;;;;5.82;54.42;99322.69;4965025;28;6988;-73
2023/01/19 05:32:25;;;;;;;;;;;;;;;5.74;54.33;99326.53;4976004;28;6780;-73
2023/01/19 05:34:50;;;;;;;;;;;;;;;5.69;54.25;99342.41;4990889;28;7224;-73
2023/01/19 05:37:16;;;;;;;;;;;;;;;5.64;54.59;99333.69;4973167;28;7368;-73
2023/01/19 05:39:41;;;;;;;;;;;;;;;5.59;55.16;99335.09;4962643;28;6780;-73
2023/01/19 05:42:07;;;;;;;;;;;;;;;5.56;55.34;99327.34;4980985;28;6916;-73
2023/01/19 05:44:33;;;;;;;;;;;;;;;5.54;55.11;99327.25;4985304;28;6784;-73
2023/01/19 05:46:58;;;;;;;;;;;;;;;5.52;55.01;99328.84;4974035;28;6792;-73
2023/01/19 05:49:24;;;;;;;;;;;;;;;5.49;55.18;99335.44;4981621;28;7361;-73
2023/01/19 05:51:49;;;;;;;;;;;;;;;5.47;55.59;99327.75;4978930;28;6943;-73
2023/01/19 05:54:15;;;;;;;;;;;;;;;5.44;55.66;99329.25;4970540;28;6966;-73
2023/01/19 05:56:42;;;;;;;;;;;;;;;5.45;55.33;99333.53;4978054;28;6783;-73
2023/01/19 05:59:08;;;;;;;;;;;;;;;5.43;56.00;99343.63;4980419;28;7238;-73
2023/01/19 06:01:36;;;;;;;;;;;;;;;5.37;56.02;99339.09;4977747;28;6863;-73
2023/01/19 06:04:02;;;;;;;;;;;;;;;5.36;56.34;99356.78;4964224;28;6796;-74
2023/01/19 06:06:27;;;;;;;;;;;;;;;5.36;56.27;99356.78;4965493;28;7150;-73
2023/01/19 06:08:53;;;;;;;;;;;;;;;5.37;56.34;99363.66;4967369;28;6863;-74
2023/01/19 06:11:19;;;;;;;;;;;;;;;5.38;56.27;99365.41;4976762;28;6776;-73
2023/01/19 06:13:45;;;;;;;;;;;;;;;5.37;56.58;99364.50;4965792;28;6788;-73
2023/01/19 06:16:11;;;;;;;;;;;;;;;5.38;56.03;99366.25;4979227;28;6796;-73
2023/01/19 06:18:36;;;;;;;;;;;;;;;5.39;56.48;99373.06;4983019;28;7377;-73
2023/01/19 06:21:08;;;;;;;;;;;;;;;5.38;56.51;99376.41;4963999;28;6776;-74
2023/01/19 06:23:35;;;;;;;;;;;;;;;5.38;56.13;99376.41;4989469;28;7239;-73
2023/01/19 06:26:03;;;;;;;;;;;;;;;5.35;56.61;99381.34;4965766;28;6796;-74
2023/01/19 06:28:29;;;;;;;;;;;;;;;5.34;56.56;99379.59;4977055;28;7081;-73
2023/01/19 06:30:56;;;;;;;;;;;;;;;5.35;56.82;99391.50;4965829;28;7217;-74
2023/01/19 06:33:23;;;;;;;;;;;;;;;5.36;56.77;99382.19;4979367;28;7117;-74
2023/01/19 06:35:50;;;;;;;;;;;;;;;5.35;56.29;99391.50;4961478;28;6971;-73
2023/01/19 06:38:18;;;;;;;;;;;;;;;5.35;56.61;99399.13;4965051;28;6871;-74
2023/01/19 06:40:50;;;;;;;;;;;;;;;5.36;56.52;99398.34;4954431;28;7160;-74
2023/01/19 06:43:15;;;;;;;;;;;;;;;5.35;57.16;99391.50;4970918;28;6796;-73
2023/01/19 06:45:41;;;;;;;;;;;;;;;5.34;56.91;99392.31;4984732;28;7064;-74
2023/01/19 06:48:07;;;;;;;;;;;;;;;5.33;56.64;99398.19;4980200;28;6953;-73
2023/01/19 06:50:33;;;;;;;;;;;;;;;5.31;56.71;99392.16;4978742;28;6953;-73
2023/01/19 06:52:59;;;;;;;;;;;;;;;5.28;57.33;99392.88;4979026;28;7648;-74
2023/01/19 06:55:24;;;;;;;;;;;;;;;5.27;56.74;99402.94;4976079;28;9224;-73
2023/01/19 06:57:58;;;;;;;;;;;;;;;5.25;57.66;99404.53;4982808;28;6968;-74
2023/01/19 07:00:24;;;;;;;;;;;;;;;5.24;58.00;99412.94;4964518;28;7651;-73
2023/01/19 07:02:50;;;;;;;;;;;;;;;5.24;57.60;99412.94;4987333;28;7167;-73
2023/01/19 07:05:16;;;;;;;;;;;;;;;5.23;57.17;99404.44;4967873;28;6788;-73
2023/01/19 07:07:43;;;;;;;;;;;;;;;5.23;57.33;99409.50;4998795;28;6967;-73
2023/01/19 07:10:11;;;;;;;;;;;;;;;5.23;57.75;99406.13;4978002;28;7214;-73
2023/01/19 07:12:38;;;;;;;;;;;;;;;5.23;57.95;99408.66;4959687;28;7904;-73
2023/01/19 07:15:05;;;;;;;;;;;;;;;5.22;57.69;99394.22;4965486;28;7430;-73
2023/01/19 07:17:31;;;;;;;;;;;;;;;5.18;57.84;99392.28;4983329;28;7252;-73
2023/01/19 07:19:56;;;;;;;;;;;;;;;5.16;57.62;99381.16;4974710;28;6931;-73
2023/01/19 07:22:22;;;;;;;;;;;;;;;5.11;58.02;99376.69;4970815;28;7018;-73
2023/01/19 07:24:47;;;;;;;;;;;;;;;5.09;58.50;99375.75;4979767;28;7190;-73
2023/01/19 07:27:15;;;;;;;;;;;;;;;5.04;58.09;99374.66;4979759;28;6855;-73
2023/01/19 07:29:41;;;;;;;;;;;;;;;4.99;58.65;99383.66;4994536;28;6808;-74
2023/01/19 07:32:07;;;;;;;;;;;;;;;4.98;59.29;99397.16;4993492;28;7059;-73
2023/01/19 07:34:33;;;;;;;;;;;;;;;5.02;58.72;99400.75;4966188;28;6776;-73
2023/01/19 07:36:59;;;;;;;;;;;;;;;5.06;58.41;99412.81;4979314;28;6780;-73
2023/01/19 07:39:25;;;;;;;;;;;;;;;5.05;58.90;99417.03;4993446;28;6880;-73
2023/01/19 07:41:50;;;;;;;;;;;;;;;5.09;58.67;99425.69;4971938;28;6791;-73
2023/01/19 07:44:16;;;;;;;;;;;;;;;5.10;59.13;99424.91;4994578;28;6784;-73
2023/01/19 07:46:42;;;;;;;;;;;;;;;5.09;59.33;99429.09;4963933;28;7146;-73
2023/01/19 07:49:08;;;;;;;;;;;;;;;5.11;59.32;99431.72;4967329;28;7044;-73
2023/01/19 07:51:35;;;;;;;;;;;;;;;5.16;59.12;99439.59;4977731;28;6946;-72
2023/01/19 07:54:01;;;;;;;;;;;;;;;5.19;59.18;99438.09;4969975;28;6991;-73
2023/01/19 07:56:29;;;;;;;;;;;;;;;5.20;59.15;99437.31;4976726;28;6807;-73
2023/01/19 07:58:55;;;;;;;;;;;;;;;5.23;59.55;99441.69;4993717;28;6799;-76
2023/01/19 08:01:20;;;;;;;;;;;;;;;5.27;59.13;99446.13;4975622;28;10367;-74
2023/01/19 08:03:47;;;;;;;;;;;;;;;5.30;58.80;99446.28;4979404;28;6777;-73
2023/01/19 08:06:32;;;;;;;;;;;;;;;5.31;59.45;99440.44;4962291;28;6849;-73
2023/01/19 08:08:57;;;;;;;;;;;;;;;5.32;59.46;99449.81;4979556;28;7004;-73
2023/01/19 08:11:23;;;;;;;;;;;;;;;5.35;58.90;99456.69;4994038;28;7909;-73
2023/01/19 08:13:48;;;;;;;;;;;;;;;5.36;58.72;99453.34;4994393;28;7146;-72
2023/01/19 08:16:14;;;;;;;;;;;;;;;5.38;58.87;99461.97;4976999;28;7025;-73
2023/01/19 08:18:40;;;;;;;;;;;;;;;5.40;58.96;99461.22;4988980;28;6796;-73
2023/01/19 08:21:06;;;;;;;;;;;;;;;5.44;58.97;99472.44;4986275;28;6816;-72
2023/01/19 08:23:31;;;;;;;;;;;;;;;5.48;59.33;99473.47;4993545;28;6784;-73
2023/01/19 08:25:57;;;;;;;;;;;;;;;5.49;58.97;99481.19;4964801;28;8232;-73
2023/01/19 08:28:23;;;;;;;;;;;;;;;5.52;58.75;99478.81;4968070;28;6772;-73
2023/01/19 08:30:58;;;;;;;;;;;;;;;5.57;59.04;99479.06;4964871;28;6813;-72
2023/01/19 08:33:24;;;;;;;;;;;;;;;5.61;58.73;99486.06;4969128;28;7014;-73
2023/01/19 08:35:52;;;;;;;;;;;;;;;5.65;59.15;99487.97;4978041;28;6923;-73
2023/01/19 08:38:19;;;;;;;;;;;;;;;5.69;58.62;99487.31;4966623;28;6785;-72
2023/01/19 08:40:44;;;;;;;;;;;;;;;5.73;58.63;99479.88;4969051;28;6800;-72
2023/01/19 08:43:13;;;;;;;;;;;;;;;5.76;58.83;99485.13;4968558;28;7110;-73
2023/01/19 08:45:49;;;;;;;;;;;;;;;5.78;58.99;99489.50;4976419;28;7183;-73
2023/01/19 08:48:18;;;;;;;;;;;;;;;5.81;59.02;99496.41;4961075;28;7072;-73
2023/01/19 08:50:49;;;;;;;;;;;;;;;5.86;58.58;99494.13;4966669;28;8097;-73
2023/01/19 08:53:15;;;;;;;;;;;;;;;5.88;58.42;99502.69;4961883;28;6915;-74
2023/01/19 08:55:41;;;;;;;;;;;;;;;5.89;58.69;99497.69;4990340;28;6852;-74
2023/01/19 08:58:07;;;;;;;;;;;;;;;5.93;58.80;99497.06;4968813;28;7038;-74
2023/01/19 09:00:38;;;;;;;;;;;;;;;5.96;58.89;99504.84;4966403;28;6848;-75
2023/01/19 09:03:07;;;;;;;;;;;;;;;5.98;58.48;99505.78;4982524;28;6939;-74
2023/01/19 09:05:37;;;;;;;;;;;;;;;6.02;58.36;99514.47;4972913;28;6848;-74
2023/01/19 09:08:10;;;;;;;;;;;;;;;6.06;58.79;99515.53;4979624;28;6808;-75
2023/01/19 09:10:38;;;;;;;;;;;;;;;6.10;58.58;99514.91;4980497;28;6896;-74
2023/01/19 09:13:09;;;;;;;;;;;;;;;6.13;58.55;99516.69;4968605;28;6852;-74
2023/01/19 09:15:37;;;;;;;;;;;;;;;6.14;58.52;99524.44;4995304;28;6963;-73
2023/01/19 09:18:06;;;;;;;;;;;;;;;6.19;58.56;99527.22;4996854;28;7031;-74
2023/01/19 09:20:34;;;;;;;;;;;;;;;6.22;58.94;99530.78;4952123;28;7041;-74
2023/01/19 09:23:00;;;;;;;;;;;;;;;6.27;58.92;99535.22;4972660;28;7026;-73
2023/01/19 09:25:26;;;;;;;;;;;;;;;6.30;58.69;99523.53;4990322;28;7068;-73
2023/01/19 09:27:52;;;;;;;;;;;;;;;6.34;58.08;99532.22;4978209;28;6776;-74
2023/01/19 09:30:18;;;;;;;;;;;;;;;6.36;58.80;99533.16;4995832;28;6788;-74
2023/01/19 09:32:44;;;;;;;;;;;;;;;6.38;58.41;99536.69;4972435;28;7251;-73
2023/01/19 09:35:10;;;;;;;;;;;;;;;6.39;58.06;99548.59;4968505;28;6800;-74
2023/01/19 09:37:36;;;;;;;;;;;;;;;6.43;58.02;99542.84;4989597;28;7996;-74
2023/01/19 09:40:04;;;;;;;;;;;;;;;6.47;58.07;99543.91;4993304;28;6780;-73
2023/01/19 09:42:49;;;;;;;;;;;;;;;6.51;57.95;99551.75;4978715;28;7883;-74
2023/01/19 09:45:38;;;;;;;;;;;;;;;6.55;58.16;99544.28;4982242;28;6804;-74
2023/01/19 09:48:32;;;;;;;;;;;;;;;6.57;58.37;99548.66;4967318;28;6812;-74
2023/01/19 09:51:04;;;;;;;;;;;;;;;6.57;58.18;99546.09;4977486;28;6804;-74
2023/01/19 09:53:55;;;;;;;;;;;;;;;6.61;58.61;99554.78;4966094;28;6876;-75
2023/01/19 09:56:22;;;;;;;;;;;;;;;6.65;58.47;99561.75;4956843;28;6797;-74
2023/01/19 09:58:50;;;;;;;;;;;;;;;6.69;57.93;99561.13;4981254;28;8013;-74
2023/01/19 10:01:51;;;;;;;;;;;;;;;6.74;58.59;99564.75;4994182;28;7222;-75
2023/01/19 10:04:40;;;;;;;;;;;;;;;6.82;58.03;99557.53;4966435;28;7182;-74
2023/01/19 10:07:52;;;;;;;;;;;;;;;6.90;58.29;99565.53;4993678;28;6783;-74
2023/01/19 10:10:26;;;;;;;;;;;;;;;6.95;58.12;99566.63;4970707;28;7897;-73
2023/01/19 10:12:58;;;;;;;;;;;;;;;7.05;57.93;99561.22;4991746;28;6788;-73
2023/01/19 10:15:54;;;;;;;;;;;;;;;7.09;58.13;99567.28;4978503;28;6855;-74
2023/01/19 10:18:33;;;;;;;;;;;;;;;7.16;58.16;99563.41;4978116;28;6892;-74
2023/01/19 10:21:13;;;;;;;;;;;;;;;7.28;58.07;99569.06;4970261;28;7118;-74
2023/01/19 10:23:56;;;;;;;;;;;;;;;7.36;57.18;99570.31;4994651;28;7717;-74
2023/01/19 10:26:42;;;;;;;;;;;;;;;7.43;58.01;99576.56;4966532;28;6800;-74
2023/01/19 10:29:37;;;;;;;;;;;;;;;7.54;58.21;99578.75;4985908;28;6800;-73
2023/01/19 10:32:25;;;;;;;;;;;;;;;7.69;57.71;99576.03;4956107;28;7297;-73
2023/01/19 10:34:53;;;;;;;;;;;;;;;7.75;56.56;99574.66;4982345;28;7294;-73
2023/01/19 10:37:39;;;;;;;;;;;;;;;7.84;57.14;99579.31;4983486;28;7241;-75
2023/01/19 10:40:07;;;;;;;;;;;;;;;8.00;56.79;99570.66;4999332;28;7191;-75
2023/01/19 10:42:34;;;;;;;;;;;;;;;8.22;57.28;99576.72;4972738;28;6980;-75
2023/01/19 10:44:59;;;;;;;;;;;;;;;8.47;56.28;99578.66;4983959;28;7192;-76
2023/01/19 10:47:35;;;;;;;;;;;;;;;8.68;56.19;99575.31;4980695;28;7184;-76
2023/01/19 10:50:33;;;;;;;;;;;;;;;8.69;55.11;99577.09;4968740;28;7178;-76
2023/01/19 10:53:04;;;;;;;;;;;;;;;8.59;54.66;99570.69;4981000;28;6994;-75
2023/01/19 10:55:32;;;;;;;;;;;;;;;8.47;55.81;99567.59;4952906;28;7049;-75
2023/01/19 10:57:58;;;;;;;;;;;;;;;8.32;54.90;99571.22;4972217;28;7180;-75
2023/01/19 11:00:40;;;;;;;;;;;;;;;8.17;55.79;99575.66;4970892;28;6934;-74
2023/01/19 11:03:30;;;;;;;;;;;;;;;8.15;56.36;99582.34;4971063;28;7115;-75
2023/01/19 11:06:20;;;;;;;;;;;;;;;8.26;56.73;99570.97;4986869;28;6975;-75
2023/01/19 11:08:50;;;;;;;;;;;;;;;8.30;55.79;99575.38;4977837;28;6863;-74
2023/01/19 11:11:18;;;;;;;;;;;;;;;8.31;56.30;99576.28;4963015;28;7199;-75
2023/01/19 11:14:00;;;;;;;;;;;;;;;8.32;56.38;99580.56;4971206;28;7086;-75
2023/01/19 11:16:30;;;;;;;;;;;;;;;8.37;57.27;99579.06;4974357;28;7209;-75
2023/01/19 11:19:00;;;;;;;;;;;;;;;8.51;57.52;99589.94;4970802;28;6987;-74
2023/01/19 11:21:30;;;;;;;;;;;;;;;8.68;56.94;99579.56;4975542;28;6800;-74
2023/01/19 11:24:01;;;;;;;;;;;;;;;8.90;56.89;99583.91;4971800;28;6800;-74
2023/01/19 11:26:44;;;;;;;;;;;;;;;9.19;56.66;99579.09;4976964;28;6872;-74
2023/01/19 11:29:36;;;;;;;;;;;;;;;9.50;56.14;99575.19;4982759;28;7067;-75
2023/01/19 11:32:18;;;;;;;;;;;;;;;9.58;54.93;99578.94;4982676;28;8831;-74
2023/01/19 11:34:43;;;;;;;;;;;;;;;9.59;54.51;99583.25;4968264;28;6963;-75
2023/01/19 11:37:15;;;;;;;;;;;;;;;9.62;54.48;99576.50;4978843;28;6950;-74
2023/01/19 11:39:48;;;;;;;;;;;;;;;9.51;54.17;99573.50;4978561;28;6808;-74
2023/01/19 11:42:17;;;;;;;;;;;;;;;9.42;54.39;99586.81;4968042;28;9991;-75
2023/01/19 11:45:13;;;;;;;;;;;;;;;9.31;54.12;99583.81;4983749;28;6816;-75
2023/01/19 11:47:45;;;;;;;;;;;;;;;9.18;53.35;99582.47;4964517;28;7024;-74
2023/01/19 11:50:24;;;;;;;;;;;;;;;9.05;54.85;99575.09;4961678;28;7819;-74
2023/01/19 11:53:09;;;;;;;;;;;;;;;8.94;55.01;99585.75;4965430;28;6792;-74
2023/01/19 11:55:54;;;;;;;;;;;;;;;8.90;54.76;99578.78;4993402;28;6811;-75
2023/01/19 11:58:20;;;;;;;;;;;;;;;8.88;55.03;99582.94;4979965;28;7008;-74
2023/01/19 12:00:54;;;;;;;;;;;;;;;8.87;53.88;99584.63;4981193;28;6856;-74
2023/01/19 12:03:40;;;;;;;;;;;;;;;8.82;55.10;99583.56;4981960;28;7207;-74
2023/01/19 12:06:17;;;;;;;;;;;;;;;8.79;55.24;99582.56;4952498;28;7005;-74
2023/01/19 12:09:14;;;;;;;;;;;;;;;8.75;54.80;99582.44;4968049;28;8246;-74
2023/01/19 12:11:47;;;;;;;;;;;;;;;8.71;55.06;99578.03;4968051;28;7212;-75
2023/01/19 12:14:26;;;;;;;;;;;;;;;8.68;54.88;99585.53;4994440;28;6958;-74
2023/01/19 12:16:59;;;;;;;;;;;;;;;8.64;54.66;99583.66;4981827;28;7195;-73
2023/01/19 12:19:38;;;;;;;;;;;;;;;8.58;55.05;99579.16;4966385;28;7930;-74
2023/01/19 12:22:05;;;;;;;;;;;;;;;8.44;54.79;99575.09;4994538;28;6820;-73
2023/01/19 12:24:47;;;;;;;;;;;;;;;8.34;53.90;99584.06;4962623;28;6832;-73
2023/01/19 12:27:44;;;;;;;;;;;;;;;8.24;54.53;99581.91;4990919;28;6808;-73
2023/01/19 12:30:27;;;;;;;;;;;;;;;8.17;54.78;99575.66;4963846;28;6953;-73
2023/01/19 12:33:25;;;;;;;;;;;;;;;8.08;54.25;99578.66;4966821;28;6808;-73
2023/01/19 12:36:23;;;;;;;;;;;;;;;8.00;54.05;99577.44;4978431;28;6792;-73
2023/01/19 12:39:15;;;;;;;;;;;;;;;7.90;54.27;99574.47;4980096;28;7004;-73
2023/01/19 12:41:42;;;;;;;;;;;;;;;7.85;55.42;99572.50;4981838;28;7096;-73
2023/01/19 12:44:10;;;;;;;;;;;;;;;7.79;54.43;99583.31;4981022;28;6800;-73
2023/01/19 12:46:40;;;;;;;;;;;;;;;7.72;54.24;99589.81;4977698;28;8640;-73
2023/01/19 12:49:21;;;;;;;;;;;;;;;7.68;54.26;99587.06;4980055;28;7484;-73
2023/01/19 12:51:51;;;;;;;;;;;;;;;7.59;54.52;99587.50;4966298;28;6871;-74
2023/01/19 12:54:33;;;;;;;;;;;;;;;7.49;54.58;99583.63;4989820;28;7346;-73
2023/01/19 12:57:14;;;;;;;;;;;;;;;7.40;55.08;99584.09;4985567;28;6879;-72
2023/01/19 12:59:40;;;;;;;;;;;;;;;7.36;55.18;99589.81;4977511;28;7083;-73
2023/01/19 13:02:26;;;;;;;;;;;;;;;7.31;56.06;99576.84;4962110;28;6821;-73
2023/01/19 13:05:17;;;;;;;;;;;;;;;7.30;55.61;99581.91;4974929;28;7180;-73
2023/01/19 13:08:01;;;;;;;;;;;;;;;7.29;55.49;99582.69;4969163;28;6816;-73
2023/01/19 13:10:54;;;;;;;;;;;;;;;7.28;56.10;99588.56;4993772;28;7003;-73
2023/01/19 13:13:35;;;;;;;;;;;;;;;7.30;56.18;99587.00;4966932;28;7091;-73
2023/01/19 13:16:20;;;;;;;;;;;;;;;7.31;56.32;99589.59;4991518;28;6803;-73
2023/01/19 13:19:11;;;;;;;;;;;;;;;7.34;55.78;99599.09;4977310;28;7401;-73
2023/01/19 13:21:45;;;;;;;;;;;;;;;7.38;56.45;99590.75;4977000;28;6792;-73
2023/01/19 13:24:17;;;;;;;;;;;;;;;7.42;55.64;99590.13;4982374;28;7194;-73
2023/01/19 13:26:49;;;;;;;;;;;;;;;7.48;55.80;99587.88;4993878;28;6803;-73
2023/01/19 13:29:39;;;;;;;;;;;;;;;7.57;56.50;99584.00;4977436;28;6788;-73
2023/01/19 13:32:17;;;;;;;;;;;;;;;7.65;56.45;99590.31;4979048;28;6835;-74
2023/01/19 13:34:58;;;;;;;;;;;;;;;7.74;55.68;99582.25;4982078;28;6792;-73
2023/01/19 13:37:40;;;;;;;;;;;;;;;7.88;56.72;99588.84;4983337;28;6800;-73
2023/01/19 13:40:15;;;;;;;;;;;;;;;7.94;56.25;99593.34;4995423;28;6884;-73
2023/01/19 13:42:42;;;;;;;;;;;;;;;7.98;55.81;99592.69;4967903;28;7007;-73
2023/01/19 13:45:32;;;;;;;;;;;;;;;7.98;55.12;99594.38;4971614;28;6804;-73
2023/01/19 13:48:13;;;;;;;;;;;;;;;7.95;54.58;99594.25;4967415;28;6804;-74